| time (UTC) | temp F | wind direction | speed MPH | gust MPH | rain 1hr in | rain 24hr in | rain mn in | humidity % | barometer mb |
| 20260507204922 | 42 | 0.0 | 0.0 | 0.00 | 0.00 | 0.00 | 77 | 1011.9 | |
| 20260507203924 | 42 | 0.0 | 0.0 | 0.00 | 0.00 | 0.00 | 77 | 1011.8 | |
| 20260507202931 | 42 | 40 | 1.0 | 5.0 | 0.00 | 0.00 | 0.00 | 77 | 1011.6 |
| 20260507201924 | 42 | 0.0 | 0.0 | 0.00 | 0.00 | 0.00 | 75 | 1011.3 | |
| 20260507200931 | 42 | 0.0 | 0.0 | 0.00 | 0.00 | 0.00 | 77 | 1011.2 | |
| 20260507195924 | 42 | 0.0 | 0.0 | 0.00 | 0.00 | 0.00 | 76 | 1011.2 | |
| 20260507194931 | 42 | 0.0 | 0.0 | 0.00 | 0.00 | 0.00 | 78 | 1011.4 | |
| 20260507193944 | 42 | 0.0 | 0.0 | 0.00 | 0.00 | 0.00 | 79 | 1011.2 | |
| 20260507192922 | 42 | 0.0 | 0.0 | 0.00 | 0.00 | 0.00 | 79 | 1011.2 | |
| 20260507191924 | 42 | 54 | 2.0 | 2.0 | 0.00 | 0.00 | 0.00 | 77 | 1011.0 |
| 20260507190931 | 42 | 76 | 1.0 | 8.0 | 0.00 | 0.00 | 0.00 | 79 | 1010.8 |
| 20260507185924 | 42 | 0.0 | 0.0 | 0.00 | 0.00 | 0.00 | 79 | 1011.1 | |
| 20260507184932 | 42 | 0.0 | 0.0 | 0.00 | 0.00 | 0.00 | 80 | 1010.8 | |
| 20260507183943 | 42 | 0.0 | 0.0 | 0.00 | 0.00 | 0.00 | 82 | 1010.8 | |
| 20260507182931 | 42 | 0.0 | 0.0 | 0.00 | 0.00 | 0.00 | 80 | 1010.8 | |
| 20260507181923 | 42 | 0.0 | 0.0 | 0.00 | 0.00 | 0.00 | 80 | 1010.8 | |
| 20260507180922 | 43 | 0.0 | 0.0 | 0.00 | 0.00 | 0.00 | 79 | 1010.8 | |
| 20260507175924 | 45 | 339 | 0.0 | 2.0 | 0.00 | 0.00 | 0.00 | 79 | 1010.8 |
| 20260507174932 | 47 | 47 | 0.0 | 2.0 | 0.00 | 0.00 | 0.00 | 77 | 1010.4 |
| 20260507173923 | 49 | 288 | 1.0 | 2.0 | 0.00 | 0.00 | 0.00 | 74 | 1010.3 |
| 20260507172932 | 50 | 0.0 | 0.0 | 0.00 | 0.00 | 0.00 | 68 | 1010.3 | |
| 20260507171923 | 50 | 279 | 2.0 | 5.0 | 0.00 | 0.00 | 0.00 | 71 | 1010.4 |
| 20260507170931 | 50 | 308 | 3.0 | 10.0 | 0.00 | 0.00 | 0.00 | 70 | 1010.3 |
| 20260507165924 | 51 | 51 | 1.0 | 5.0 | 0.00 | 0.00 | 0.00 | 69 | 1010.0 |
| 20260507164922 | 51 | 280 | 3.0 | 5.0 | 0.00 | 0.00 | 0.00 | 69 | 1010.0 |
| 20260507163924 | 52 | 265 | 4.0 | 8.0 | 0.00 | 0.03 | 0.00 | 70 | 1010.0 |
| 20260507162931 | 52 | 290 | 4.0 | 10.0 | 0.00 | 0.03 | 0.00 | 66 | 1010.0 |
| 20260507161923 | 53 | 252 | 2.0 | 5.0 | 0.00 | 0.05 | 0.00 | 67 | 1009.9 |
| 20260507160931 | 53 | 266 | 1.0 | 5.0 | 0.00 | 0.12 | 0.00 | 69 | 1009.6 |
| 20260507155923 | 54 | 272 | 3.0 | 5.0 | 0.00 | 0.23 | 0.00 | 69 | 1010.0 |
| 20260507154932 | 54 | 282 | 4.0 | 5.0 | 0.00 | 0.40 | 0.00 | 67 | 1009.6 |
| 20260507153944 | 54 | 280 | 3.0 | 5.0 | 0.00 | 0.58 | 0.00 | 68 | 1009.6 |
| 20260507152921 | 54 | 296 | 7.0 | 10.0 | 0.00 | 0.69 | 0.00 | 66 | 1010.0 |
| 20260507151923 | 54 | 300 | 6.0 | 10.0 | 0.00 | 0.77 | 0.00 | 67 | 1009.6 |
| 20260507150932 | 54 | 280 | 3.0 | 5.0 | 0.00 | 0.82 | 0.00 | 65 | 1010.0 |
| 20260507145923 | 54 | 281 | 4.0 | 8.0 | 0.00 | 0.84 | 0.00 | 66 | 1009.6 |
| 20260507144932 | 54 | 290 | 0.0 | 2.0 | 0.00 | 0.84 | 0.00 | 66 | 1009.9 |
| 20260507143923 | 53 | 245 | 4.0 | 10.0 | 0.00 | 0.84 | 0.00 | 68 | 1009.6 |
| 20260507142931 | 52 | 260 | 5.0 | 8.0 | 0.00 | 0.84 | 0.00 | 63 | 1009.6 |
| 20260507141924 | 51 | 237 | 11.0 | 13.0 | 0.00 | 0.84 | 0.00 | 65 | 1009.6 |
| 20260507140942 | 50 | 249 | 4.0 | 8.0 | 0.00 | 0.84 | 0.00 | 63 | 1010.0 |
| 20260507135923 | 50 | 256 | 5.0 | 10.0 | 0.00 | 0.84 | 0.00 | 64 | 1009.8 |
| 20260507134932 | 49 | 237 | 3.0 | 5.0 | 0.00 | 0.84 | 0.00 | 68 | 1010.0 |
| 20260507133923 | 49 | 254 | 10.0 | 13.0 | 0.00 | 0.84 | 0.00 | 69 | 1010.0 |
| 20260507132931 | 49 | 248 | 4.0 | 8.0 | 0.00 | 0.84 | 0.00 | 66 | 1010.0 |
| 20260507131923 | 49 | 196 | 2.0 | 5.0 | 0.00 | 0.84 | 0.00 | 66 | 1010.0 |
| 20260507130932 | 48 | 215 | 4.0 | 8.0 | 0.00 | 0.84 | 0.00 | 63 | 1010.3 |
| 20260507125923 | 48 | 245 | 7.0 | 10.0 | 0.00 | 0.84 | 0.00 | 67 | 1010.0 |
| 20260507124922 | 48 | 0.0 | 0.0 | 0.00 | 0.84 | 0.00 | 65 | 1010.0 | |
| 20260507123924 | 48 | 296 | 1.0 | 5.0 | 0.00 | 0.84 | 0.00 | 67 | 1010.0 |
| 20260507122931 | 49 | 258 | 2.0 | 8.0 | 0.00 | 0.84 | 0.00 | 69 | 1010.0 |
| 20260507121923 | 48 | 255 | 5.0 | 10.0 | 0.00 | 0.84 | 0.00 | 71 | 1010.0 |
| 20260507120931 | 48 | 229 | 6.0 | 8.0 | 0.00 | 0.84 | 0.00 | 66 | 1010.0 |
| 20260507115924 | 48 | 232 | 1.0 | 5.0 | 0.00 | 0.84 | 0.00 | 67 | 1010.0 |
| 20260507115011 | 48 | 233 | 5.0 | 8.0 | 0.00 | 0.84 | 0.00 | 72 | 1010.0 |
| 20260507113923 | 47 | 154 | 3.0 | 5.0 | 0.00 | 0.84 | 0.00 | 68 | 1010.0 |
| 20260507112922 | 46 | 251 | 7.0 | 10.0 | 0.00 | 0.84 | 0.00 | 74 | 1010.0 |
| 20260507111923 | 46 | 50 | 5.0 | 8.0 | 0.00 | 0.84 | 0.00 | 72 | 1010.0 |
| 20260507110931 | 45 | 349 | 1.0 | 5.0 | 0.00 | 0.84 | 0.00 | 73 | 1010.0 |
| 20260507105923 | 45 | 251 | 5.0 | 8.0 | 0.00 | 0.84 | 0.00 | 77 | 1010.1 |
| 20260507104931 | 45 | 238 | 6.0 | 10.0 | 0.00 | 0.84 | 0.00 | 75 | 1010.0 |
| 20260507104044 | 45 | 233 | 5.0 | 8.0 | 0.00 | 0.84 | 0.00 | 78 | 1010.4 |
| 20260507102931 | 44 | 194 | 0.0 | 2.0 | 0.00 | 0.84 | 0.00 | 76 | 1010.4 |
| 20260507101923 | 43 | 223 | 3.0 | 5.0 | 0.00 | 0.84 | 0.00 | 78 | 1010.4 |
| 20260507100922 | 43 | 231 | 0.0 | 2.0 | 0.00 | 0.84 | 0.00 | 81 | 1010.4 |
| 20260507095944 | 42 | 0.0 | 0.0 | 0.00 | 0.84 | 0.00 | 80 | 1010.2 | |
| 20260507094951 | 43 | 265 | 0.0 | 2.0 | 0.00 | 0.84 | 0.00 | 86 | 1010.4 |
| 20260507093923 | 43 | 260 | 2.0 | 2.0 | 0.00 | 0.84 | 0.00 | 84 | 1010.1 |
| 20260507092931 | 43 | 241 | 4.0 | 5.0 | 0.00 | 0.84 | 0.00 | 85 | 1010.0 |
| 20260507091923 | 43 | 234 | 0.0 | 2.0 | 0.00 | 0.84 | 0.00 | 85 | 1010.0 |
| 20260507090931 | 42 | 0.0 | 0.0 | 0.00 | 0.84 | 0.00 | 87 | 1010.0 | |
| 20260507085943 | 42 | 263 | 3.0 | 5.0 | 0.00 | 0.84 | 0.00 | 85 | 1010.0 |
| 20260507084925 | 41 | 0.0 | 0.0 | 0.00 | 0.84 | 0.00 | 85 | 1010.0 | |
| 20260507083923 | 40 | 0.0 | 0.0 | 0.00 | 0.84 | 0.00 | 89 | 1010.0 | |
| 20260507082932 | 40 | 0.0 | 0.0 | 0.00 | 0.84 | 0.00 | 90 | 1010.0 | |
| 20260507081923 | 38 | 0.0 | 0.0 | 0.00 | 0.85 | 0.00 | 90 | 1009.9 | |
| 20260507080931 | 38 | 269 | 2.0 | 5.0 | 0.00 | 0.86 | 0.00 | 96 | 1010.0 |
| 20260507075922 | 37 | 281 | 0.0 | 2.0 | 0.00 | 0.86 | 0.00 | 98 | 1010.0 |
| 20260507074931 | 37 | 0.0 | 0.0 | 0.00 | 0.86 | 0.00 | 99 | 1010.0 | |
| 20260507073923 | 37 | 0.0 | 0.0 | 0.00 | 0.86 | 0.00 | 99 | 1010.0 | |
| 20260507072942 | 37 | 0.0 | 0.0 | 0.00 | 0.86 | 0.00 | 99 | 1009.6 | |
| 20260507071923 | 37 | 0.0 | 0.0 | 0.00 | 0.89 | 0.00 | 94 | 1009.6 | |
| 20260507070931 | 37 | 0.0 | 0.0 | 0.00 | 0.90 | 0.00 | 95 | 1009.6 | |
| 20260507065923 | 36 | 0.0 | 0.0 | 0.00 | 0.92 | 0.00 | 95 | 1009.5 | |
| 20260507064931 | 36 | 0.0 | 0.0 | 0.00 | 0.92 | 0.00 | 97 | 1009.2 | |
| 20260507063923 | 37 | 295 | 2.0 | 2.0 | 0.00 | 0.92 | 0.00 | 98 | 1009.2 |
| 20260507062931 | 37 | 274 | 1.0 | 2.0 | 0.00 | 0.95 | 0.00 | 99 | 1009.2 |
| 20260507061923 | 37 | 0.0 | 0.0 | 0.00 | 0.95 | 0.00 | 96 | 1009.2 | |
| 20260507060922 | 37 | 0.0 | 0.0 | 0.00 | 0.95 | 0.00 | 98 | 1009.2 | |
| 20260507055923 | 36 | 0.0 | 0.0 | 0.00 | 0.95 | 0.00 | 98 | 1009.2 | |
| 20260507054931 | 36 | 0.0 | 0.0 | 0.00 | 0.95 | 0.00 | 94 | 1008.8 | |
| 20260507053923 | 35 | 0.0 | 0.0 | 0.00 | 0.95 | 0.00 | 92 | 1008.8 | |
| 20260507052931 | 34 | 0.0 | 0.0 | 0.00 | 0.95 | 0.00 | 90 | 1008.4 | |
| 20260507051923 | 34 | 80 | 3.0 | 5.0 | 0.00 | 0.95 | 0.00 | 85 | 1008.4 |
| 20260507050931 | 34 | 73 | 2.0 | 2.0 | 0.00 | 0.95 | 0.00 | 96 | 1008.4 |
| 20260507045923 | 34 | 0.0 | 0.0 | 0.00 | 0.95 | 0.00 | 99 | 1008.1 | |
| 20260507044922 | 34 | 0.0 | 0.0 | 0.00 | 0.95 | 0.00 | 95 | 1008.4 | |
| 20260507043923 | 34 | 0.0 | 0.0 | 0.00 | 0.95 | 0.00 | 90 | 1008.4 | |
| 20260507042931 | 34 | 0.0 | 0.0 | 0.00 | 0.95 | 0.00 | 90 | 1008.0 | |
| 20260507041923 | 34 | 0.0 | 0.0 | 0.00 | 0.95 | 0.00 | 94 | 1008.0 | |
| 20260507040931 | 34 | 0.0 | 0.0 | 0.00 | 0.95 | 0.00 | 99 | 1008.0 | |
| 20260507035923 | 34 | 0.0 | 0.0 | 0.00 | 0.95 | 0.00 | 99 | 1008.0 | |
| 20260507034931 | 34 | 0.0 | 0.0 | 0.00 | 0.95 | 0.00 | 99 | 1008.0 | |
| 20260507033923 | 34 | 0.0 | 0.0 | 0.00 | 0.95 | 0.00 | 99 | 1008.0 | |
| 20260507032922 | 34 | 0.0 | 0.0 | 0.00 | 0.95 | 0.00 | 99 | 1008.0 | |
| 20260507031923 | 34 | 0.0 | 0.0 | 0.00 | 0.95 | 0.00 | 99 | 1008.0 | |
| 20260507030931 | 34 | 0.0 | 0.0 | 0.00 | 0.95 | 0.00 | 99 | 1008.0 | |
| 20260507025923 | 34 | 0.0 | 0.0 | 0.00 | 0.95 | 0.00 | 99 | 1008.0 | |
| 20260507024951 | 34 | 0.0 | 0.0 | 0.00 | 0.95 | 0.00 | 99 | 1008.0 | |
| 20260507023923 | 34 | 0.0 | 0.0 | 0.00 | 0.95 | 0.00 | 99 | 1008.0 | |
| 20260507022931 | 34 | 0.0 | 0.0 | 0.00 | 0.95 | 0.00 | 99 | 1008.0 | |
| 20260507021923 | 34 | 0.0 | 0.0 | 0.00 | 0.95 | 0.00 | 99 | 1008.0 | |
| 20260507020922 | 34 | 90 | 1.0 | 5.0 | 0.00 | 0.95 | 0.00 | 99 | 1008.0 |
| 20260507015923 | 34 | 0.0 | 0.0 | 0.00 | 0.95 | 0.00 | 99 | 1008.0 | |
| 20260507014931 | 34 | 0.0 | 0.0 | 0.00 | 0.95 | 0.00 | 99 | 1008.0 | |
| 20260507013923 | 33 | 0.0 | 0.0 | 0.00 | 0.95 | 0.00 | 99 | 1007.7 | |
| 20260507012931 | 33 | 0.0 | 0.0 | 0.00 | 0.95 | 0.00 | 99 | 1007.9 | |
| 20260507011923 | 33 | 0.0 | 0.0 | 0.00 | 0.95 | 0.00 | 99 | 1007.6 | |
| 20260507011011 | 33 | 0.0 | 0.0 | 0.00 | 0.95 | 0.00 | 99 | 1007.9 | |
| 20260507005923 | 33 | 0.0 | 0.0 | 0.00 | 0.95 | 0.00 | 99 | 1007.6 | |
| 20260507004942 | 33 | 0.0 | 0.0 | 0.00 | 0.95 | 0.00 | 99 | 1007.6 | |
| 20260507003943 | 33 | 0.0 | 0.0 | 0.00 | 0.95 | 0.00 | 99 | 1007.6 | |
| 20260507002931 | 33 | 0.0 | 0.0 | 0.00 | 0.95 | 0.00 | 99 | 1007.6 | |
| 20260507001922 | 33 | 0.0 | 0.0 | 0.00 | 0.95 | 0.00 | 99 | 1007.6 | |
| 20260507000931 | 33 | 0.0 | 0.0 | 0.00 | 0.95 | 0.00 | 99 | 1008.0 | |
| 20260506235923 | 33 | 0.0 | 0.0 | 0.00 | 0.95 | 0.00 | 99 | 1007.6 | |
| 20260506234931 | 33 | 0.0 | 0.0 | 0.00 | 0.95 | 0.00 | 99 | 1007.9 | |
| 20260506233923 | 33 | 0.0 | 0.0 | 0.00 | 0.95 | 0.00 | 99 | 1007.9 | |
| 20260506232942 | 33 | 0.0 | 0.0 | 0.00 | 0.95 | 0.00 | 99 | 1008.0 | |
| 20260506231922 | 33 | 0.0 | 0.0 | 0.00 | 0.95 | 0.00 | 99 | 1008.0 | |
| 20260506230931 | 33 | 0.0 | 0.0 | 0.00 | 0.95 | 0.00 | 99 | 1008.0 | |
| 20260506225922 | 33 | 0.0 | 0.0 | 0.00 | 0.95 | 0.00 | 99 | 1008.0 | |
| 20260506224930 | 34 | 0.0 | 0.0 | 0.00 | 0.95 | 0.00 | 99 | 1008.0 | |
| 20260506223942 | 34 | 0.0 | 0.0 | 0.00 | 0.95 | 0.00 | 99 | 1008.0 | |
| 20260506222930 | 34 | 0.0 | 0.0 | 0.00 | 0.95 | 0.00 | 99 | 1008.0 | |
| 20260506221922 | 34 | 0.0 | 0.0 | 0.00 | 0.95 | 0.00 | 99 | 1007.7 | |
| 20260506220921 | 34 | 0.0 | 0.0 | 0.00 | 0.95 | 0.00 | 99 | 1008.0 | |
| 20260506215943 | 34 | 0.0 | 0.0 | 0.00 | 0.95 | 0.95 | 99 | 1007.6 | |
| 20260506214930 | 34 | 0.0 | 0.0 | 0.00 | 0.95 | 0.95 | 99 | 1007.6 | |
| 20260506214002 | 34 | 0.0 | 0.0 | 0.00 | 0.95 | 0.95 | 99 | 1007.6 | |
| 20260506212931 | 34 | 0.0 | 0.0 | 0.00 | 0.95 | 0.95 | 99 | 1007.6 | |
| 20260506211922 | 34 | 0.0 | 0.0 | 0.00 | 0.95 | 0.95 | 99 | 1008.0 | |
| 20260506210930 | 34 | 0.0 | 0.0 | 0.00 | 0.95 | 0.95 | 99 | 1007.9 | |
| 20260506205923 | 34 | 0.0 | 0.0 | 0.00 | 0.95 | 0.95 | 99 | 1007.6 |